Time;durP1;ratioP1;P1;durP2;ratioP2;P2;SDS_P1;SDS_P2;PMS_P1;PMS_P2;Temp;Humidity;BMP_temperature;BMP_pressure;BME280_temperature;BME280_humidity;BME280_pressure;Samples;Min_cycle;Max_cycle;Signal;HPM_P1;HPM_P2
2021/12/28 00:01:25;;;;;;;29.38;16.73;;;;;;;;;;5022362;28;20041;-92
2021/12/28 00:03:54;;;;;;;34.78;18.13;;;;;;;;;;5002176;28;20043;-92
2021/12/28 00:06:20;;;;;;;31.05;17.83;;;;;;;;;;5014996;28;20038;-92
2021/12/28 00:08:47;;;;;;;31.60;16.98;;;;;;;;;;5014102;28;20053;-92
2021/12/28 00:11:13;;;;;;;30.40;17.13;;;;;;;;;;5013356;28;20045;-92
2021/12/28 00:13:41;;;;;;;32.60;16.90;;;;;;;;;;5014221;28;20045;-93
2021/12/28 00:18:37;;;;;;;29.88;17.05;;;;;;;;;;4998160;28;20042;-93
2021/12/28 00:21:07;;;;;;;28.00;17.15;;;;;;;;;;5012596;28;20065;-91
2021/12/28 00:23:39;;;;;;;25.80;15.95;;;;;;;;;;5010996;28;20065;-92
2021/12/28 00:26:10;;;;;;;28.92;16.70;;;;;;;;;;5009996;28;20042;-92
2021/12/28 00:28:36;;;;;;;;;;;;;;;;;;5009696;28;20050;-92
2021/12/28 00:31:02;;;;;;;27.00;14.77;;;;;;;;;;5009168;28;19914;-93
2021/12/28 00:33:28;;;;;;;26.85;14.68;;;;;;;;;;5009033;28;20503;-92
2021/12/28 00:35:55;;;;;;;27.00;16.55;;;;;;;;;;5009948;28;20039;-91
2021/12/28 00:38:24;;;;;;;31.35;16.83;;;;;;;;;;4993987;28;20034;-92
2021/12/28 00:40:52;;;;;;;30.33;16.52;;;;;;;;;;5004002;28;20043;-91
2021/12/28 00:43:18;;;;;;;30.98;18.02;;;;;;;;;;4991684;28;20046;-92
2021/12/28 00:45:45;;;;;;;32.20;18.70;;;;;;;;;;4993590;28;20061;-93
2021/12/28 00:48:12;;;;;;;37.97;20.08;;;;;;;;;;4990999;28;20058;-91
2021/12/28 00:50:38;;;;;;;32.90;20.33;;;;;;;;;;4991648;28;20054;-92
2021/12/28 00:53:04;;;;;;;30.25;17.30;;;;;;;;;;4992328;28;20042;-93
2021/12/28 00:55:30;;;;;;;27.25;16.65;;;;;;;;;;4991735;28;20288;-91
2021/12/28 00:57:56;;;;;;;28.58;15.52;;;;;;;;;;4992611;28;20030;-92
2021/12/28 01:00:29;;;;;;;31.67;16.42;;;;;;;;;;4991534;28;20042;-92
2021/12/28 01:02:56;;;;;;;25.52;15.68;;;;;;;;;;4991301;28;20042;-92
2021/12/28 01:05:23;;;;;;;28.00;15.80;;;;;;;;;;4993878;28;20043;-92
2021/12/28 01:07:49;;;;;;;27.25;17.00;;;;;;;;;;4993289;28;20022;-92
2021/12/28 01:10:20;;;;;;;31.58;17.08;;;;;;;;;;4992068;28;20049;-92
2021/12/28 01:12:46;;;;;;;33.72;17.98;;;;;;;;;;4992653;28;20039;-92
2021/12/28 01:15:13;;;;;;;28.88;16.98;;;;;;;;;;4992950;28;20038;-91
2021/12/28 01:17:39;;;;;;;30.23;16.20;;;;;;;;;;4991628;28;20042;-92
2021/12/28 01:20:08;;;;;;;27.25;15.52;;;;;;;;;;4993770;28;20045;-93
2021/12/28 01:22:35;;;;;;;24.25;13.82;;;;;;;;;;4992763;28;20038;-92
2021/12/28 01:25:02;;;;;;;25.95;15.05;;;;;;;;;;4992569;28;20404;-92
2021/12/28 01:27:28;;;;;;;31.02;15.77;;;;;;;;;;4992092;28;20038;-92
2021/12/28 01:29:54;;;;;;;33.35;15.55;;;;;;;;;;4992677;28;20042;-92
2021/12/28 01:32:23;;;;;;;28.25;15.25;;;;;;;;;;4993797;28;20504;-92
2021/12/28 01:34:49;;;;;;;23.52;13.88;;;;;;;;;;4993151;28;20039;-92
2021/12/28 01:37:15;;;;;;;26.58;14.30;;;;;;;;;;4996864;28;20038;-92
2021/12/28 01:39:41;;;;;;;29.55;12.82;;;;;;;;;;5005346;28;20023;-92
2021/12/28 01:42:07;;;;;;;31.38;15.52;;;;;;;;;;5007501;28;20085;-93
2021/12/28 01:44:35;;;;;;;26.65;12.23;;;;;;;;;;5002022;28;20038;-91
2021/12/28 01:47:01;;;;;;;27.13;12.30;;;;;;;;;;5009644;28;20023;-92
2021/12/28 01:49:28;;;;;;;27.40;11.38;;;;;;;;;;5013129;28;20038;-91
2021/12/28 01:51:54;;;;;;;20.00;11.32;;;;;;;;;;5005592;28;20042;-91
2021/12/28 01:54:23;;;;;;;20.30;10.20;;;;;;;;;;5008765;28;20042;-91
2021/12/28 01:56:52;;;;;;;25.45;10.57;;;;;;;;;;4996543;28;20034;-91
2021/12/28 01:59:21;;;;;;;23.83;11.32;;;;;;;;;;4996097;28;20046;-92
2021/12/28 02:01:48;;;;;;;23.27;10.75;;;;;;;;;;5011495;28;20042;-92
2021/12/28 02:04:26;;;;;;;35.35;11.93;;;;;;;;;;4997402;28;20029;-93
2021/12/28 02:06:55;;;;;;;21.17;8.85;;;;;;;;;;5011737;28;20035;-93
2021/12/28 02:09:21;;;;;;;23.67;9.02;;;;;;;;;;5010350;28;20038;-92
2021/12/28 02:11:47;;;;;;;26.30;8.25;;;;;;;;;;5004896;28;20026;-92
2021/12/28 02:14:14;;;;;;;22.40;8.10;;;;;;;;;;5010040;28;20038;-92
2021/12/28 02:16:42;;;;;;;21.73;7.30;;;;;;;;;;5011627;28;20042;-92
2021/12/28 02:19:11;;;;;;;18.02;7.30;;;;;;;;;;5001710;28;20042;-91
2021/12/28 02:21:37;;;;;;;20.05;7.28;;;;;;;;;;4996935;28;20038;-91
2021/12/28 02:24:05;;;;;;;16.67;6.90;;;;;;;;;;4999154;28;20030;-92
2021/12/28 02:26:31;;;;;;;21.70;7.28;;;;;;;;;;4996716;28;20393;-93
2021/12/28 02:28:58;;;;;;;22.70;7.15;;;;;;;;;;5000062;28;20031;-91
2021/12/28 02:31:25;;;;;;;24.80;7.05;;;;;;;;;;5000064;28;20038;-92
2021/12/28 02:33:51;;;;;;;22.88;7.20;;;;;;;;;;5000773;28;20018;-91
2021/12/28 02:36:18;;;;;;;16.95;6.05;;;;;;;;;;4997442;28;20042;-92
2021/12/28 02:38:46;;;;;;;23.85;7.25;;;;;;;;;;5007673;28;20045;-92
2021/12/28 02:41:12;;;;;;;18.42;6.78;;;;;;;;;;5007038;28;20053;-91
2021/12/28 02:43:40;;;;;;;20.63;6.63;;;;;;;;;;5010443;28;20030;-91
2021/12/28 02:46:08;;;;;;;24.60;6.60;;;;;;;;;;5016642;28;20038;-92
2021/12/28 02:48:37;;;;;;;21.67;8.25;;;;;;;;;;5018040;28;20018;-92
2021/12/28 02:51:15;;;;;;;24.20;8.25;;;;;;;;;;5018534;28;20201;-92
2021/12/28 02:53:46;;;;;;;22.98;7.63;;;;;;;;;;5033594;28;20045;-91
2021/12/28 02:56:15;;;;;;;22.73;7.93;;;;;;;;;;5033098;28;20034;-91
2021/12/28 02:58:50;;;;;;;22.20;8.02;;;;;;;;;;5018326;28;20011;-92
2021/12/28 03:01:21;;;;;;;21.20;8.07;;;;;;;;;;5016858;28;20064;-92
2021/12/28 03:03:51;;;;;;;17.85;7.18;;;;;;;;;;5016792;28;20038;-92
2021/12/28 03:06:20;;;;;;;26.40;8.10;;;;;;;;;;5017177;28;20030;-92
2021/12/28 03:08:53;;;;;;;24.13;7.78;;;;;;;;;;5016786;28;20038;-91
2021/12/28 03:11:20;;;;;;;21.85;7.82;;;;;;;;;;5017201;28;20053;-92
2021/12/28 03:13:50;;;;;;;17.33;7.50;;;;;;;;;;5017823;28;20037;-92
2021/12/28 03:16:18;;;;;;;22.23;7.55;;;;;;;;;;5018708;28;20033;-91
2021/12/28 03:18:45;;;;;;;18.20;7.65;;;;;;;;;;5019178;28;20029;-91
2021/12/28 03:21:13;;;;;;;18.38;7.63;;;;;;;;;;5017419;28;20209;-92
2021/12/28 03:23:40;;;;;;;24.08;8.13;;;;;;;;;;5017183;28;20036;-91
2021/12/28 03:26:07;;;;;;;22.25;7.63;;;;;;;;;;5018754;28;20014;-91
2021/12/28 03:28:36;;;;;;;17.55;7.22;;;;;;;;;;5016537;28;20026;-92
2021/12/28 03:31:04;;;;;;;25.13;8.10;;;;;;;;;;5016455;28;20026;-91
2021/12/28 03:33:32;;;;;;;23.25;7.00;;;;;;;;;;5013510;28;20049;-92
2021/12/28 03:35:58;;;;;;;20.73;7.45;;;;;;;;;;5004417;28;20058;-91
2021/12/28 03:38:25;;;;;;;36.67;7.30;;;;;;;;;;5015975;28;20037;-91
2021/12/28 03:40:52;;;;;;;23.70;6.28;;;;;;;;;;5011930;28;20050;-90
2021/12/28 03:43:18;;;;;;;23.15;6.60;;;;;;;;;;4996693;28;20045;-91
2021/12/28 03:45:45;;;;;;;22.95;6.13;;;;;;;;;;4996985;28;20049;-92
2021/12/28 03:48:14;;;;;;;23.90;5.50;;;;;;;;;;5008837;28;20031;-91
2021/12/28 03:50:40;;;;;;;18.05;5.65;;;;;;;;;;5003388;28;20041;-91
2021/12/28 03:53:07;;;;;;;20.90;5.28;;;;;;;;;;4997251;28;20034;-92
2021/12/28 03:55:34;;;;;;;16.30;4.75;;;;;;;;;;4992344;28;20057;-91
2021/12/28 03:58:02;;;;;;;23.90;5.55;;;;;;;;;;4991772;28;20050;-91
2021/12/28 04:00:32;;;;;;;21.85;5.57;;;;;;;;;;4990855;28;20038;-92
2021/12/28 04:02:58;;;;;;;22.05;5.80;;;;;;;;;;4993799;28;20030;-91
2021/12/28 04:05:24;;;;;;;16.48;4.93;;;;;;;;;;4995133;28;20026;-91
2021/12/28 04:07:50;;;;;;;15.95;4.70;;;;;;;;;;4991669;28;20031;-92
2021/12/28 04:10:16;;;;;;;23.30;4.50;;;;;;;;;;4992066;28;20104;-93
2021/12/28 04:12:43;;;;;;;20.35;4.95;;;;;;;;;;4991460;28;20046;-92
2021/12/28 04:15:13;;;;;;;19.25;4.75;;;;;;;;;;4994059;28;20484;-92
2021/12/28 04:17:40;;;;;;;19.58;4.32;;;;;;;;;;5001473;28;20030;-91
2021/12/28 04:20:11;;;;;;;17.70;4.10;;;;;;;;;;5007945;28;20520;-92
2021/12/28 04:23:08;;;;;;;19.90;4.45;;;;;;;;;;5012930;28;20050;-92
2021/12/28 05:01:48;;;;;;;17.33;3.88;;;;;;;;;;5351182;23;20080;-93
2021/12/28 05:06:52;;;;;;;23.52;5.13;;;;;;;;;;5231656;23;20439;-93
2021/12/28 05:11:54;;;;;;;23.08;5.95;;;;;;;;;;5410245;23;20065;-92
2021/12/28 05:14:20;;;;;;;29.42;8.00;;;;;;;;;;5021774;28;20046;-92
2021/12/28 05:16:47;;;;;;;23.25;7.57;;;;;;;;;;5025747;28;20041;-92
2021/12/28 05:21:44;;;;;;;25.25;7.93;;;;;;;;;;5011148;28;20061;-91
2021/12/28 05:24:10;;;;;;;23.38;6.78;;;;;;;;;;4987085;28;20489;-91
2021/12/28 05:26:36;;;;;;;24.80;7.10;;;;;;;;;;5003166;28;20039;-93
2021/12/28 05:29:02;;;;;;;26.02;6.88;;;;;;;;;;5015157;28;20038;-92
2021/12/28 05:31:30;;;;;;;26.42;6.05;;;;;;;;;;5218801;23;20042;-92
2021/12/28 05:33:57;;;;;;;23.63;5.65;;;;;;;;;;5035558;28;20029;-92
2021/12/28 05:36:23;;;;;;;22.50;6.25;;;;;;;;;;5004225;28;20034;-92
2021/12/28 05:38:49;;;;;;;19.42;4.55;;;;;;;;;;5020840;28;20038;-93
2021/12/28 05:41:16;;;;;;;23.80;4.70;;;;;;;;;;5017573;28;20049;-93
2021/12/28 05:43:42;;;;;;;20.65;3.90;;;;;;;;;;5002430;28;20033;-94
2021/12/28 05:46:08;;;;;;;20.25;3.40;;;;;;;;;;5017140;28;20034;-93
2021/12/28 05:48:34;;;;;;;12.02;3.20;;;;;;;;;;5017265;28;20041;-92
2021/12/28 05:51:00;;;;;;;13.88;3.25;;;;;;;;;;5017046;28;20046;-95
2021/12/28 05:53:26;;;;;;;11.43;3.08;;;;;;;;;;5019104;28;20141;-93
2021/12/28 05:55:52;;;;;;;20.30;3.40;;;;;;;;;;5054840;23;20042;-93
2021/12/28 05:58:18;;;;;;;17.45;3.20;;;;;;;;;;5013810;28;20037;-93
2021/12/28 06:00:45;;;;;;;13.45;3.03;;;;;;;;;;5015401;28;20026;-92
2021/12/28 06:03:14;;;;;;;18.27;3.70;;;;;;;;;;5018992;28;20025;-93
2021/12/28 06:08:16;;;;;;;13.00;3.65;;;;;;;;;;5082641;23;20080;-94
2021/12/28 06:10:42;;;;;;;16.92;3.20;;;;;;;;;;5027423;28;20066;-93
2021/12/28 06:13:08;;;;;;;14.48;3.03;;;;;;;;;;5038289;28;20045;-93
2021/12/28 06:15:33;;;;;;;16.77;3.78;;;;;;;;;;5038265;28;20030;-93
2021/12/28 06:17:59;;;;;;;19.15;4.13;;;;;;;;;;5073371;23;20049;-92
2021/12/28 06:20:25;;;;;;;13.90;3.03;;;;;;;;;;5038198;28;20082;-91
2021/12/28 06:22:51;;;;;;;17.10;3.60;;;;;;;;;;5038167;28;20046;-91
2021/12/28 06:25:17;;;;;;;18.80;3.83;;;;;;;;;;5030705;28;20041;-92
2021/12/28 06:27:43;;;;;;;19.90;3.38;;;;;;;;;;5039832;28;20022;-92
2021/12/28 06:30:10;;;;;;;16.40;3.55;;;;;;;;;;5038689;28;20056;-93
2021/12/28 06:32:40;;;;;;;21.75;4.57;;;;;;;;;;5039048;28;20036;-91
2021/12/28 06:35:07;;;;;;;16.05;3.25;;;;;;;;;;5024035;28;20042;-92
2021/12/28 06:37:33;;;;;;;15.10;4.38;;;;;;;;;;5001846;28;20039;-93
2021/12/28 06:40:00;;;;;;;16.25;3.92;;;;;;;;;;5014364;28;20046;-91
2021/12/28 06:42:25;;;;;;;12.25;3.67;;;;;;;;;;5001172;28;20400;-92
2021/12/28 06:44:52;;;;;;;19.38;3.72;;;;;;;;;;5011353;28;20105;-92
2021/12/28 06:47:19;;;;;;;21.15;4.70;;;;;;;;;;5017002;28;20025;-92
2021/12/28 06:49:45;;;;;;;13.68;3.80;;;;;;;;;;5020277;28;20030;-92
2021/12/28 06:52:13;;;;;;;14.82;3.80;;;;;;;;;;5033393;28;20046;-91
2021/12/28 06:54:39;;;;;;;18.10;4.97;;;;;;;;;;5047609;28;20048;-92
2021/12/28 06:57:08;;;;;;;16.60;4.10;;;;;;;;;;5427575;23;20109;-92
2021/12/28 06:59:42;;;;;;;11.25;4.25;;;;;;;;;;5025884;28;20045;-91
2021/12/28 07:02:14;;;;;;;19.83;5.38;;;;;;;;;;5021324;28;20042;-92
2021/12/28 07:04:40;;;;;;;20.67;4.70;;;;;;;;;;5009993;28;20045;-93
2021/12/28 07:07:06;;;;;;;17.55;4.75;;;;;;;;;;5021607;28;20467;-91
2021/12/28 07:09:36;;;;;;;15.27;4.50;;;;;;;;;;5018654;28;20138;-91
2021/12/28 07:12:03;;;;;;;22.73;5.55;;;;;;;;;;5008153;28;20030;-93
2021/12/28 07:14:29;;;;;;;18.00;4.03;;;;;;;;;;5027825;28;20057;-93
2021/12/28 07:16:56;;;;;;;15.13;4.93;;;;;;;;;;5004126;28;20045;-92
2021/12/28 07:19:23;;;;;;;17.30;4.10;;;;;;;;;;4944400;28;20213;-92
2021/12/28 07:21:49;;;;;;;14.38;4.40;;;;;;;;;;4973365;28;20041;-92
2021/12/28 07:24:15;;;;;;;17.48;4.25;;;;;;;;;;4973673;28;20043;-91
2021/12/28 07:26:41;;;;;;;15.98;4.28;;;;;;;;;;4963133;28;20043;-92
2021/12/28 07:29:13;;;;;;;16.75;4.55;;;;;;;;;;4981377;28;20052;-92
2021/12/28 07:31:39;;;;;;;15.25;4.10;;;;;;;;;;4989151;28;20045;-92
2021/12/28 07:34:05;;;;;;;17.65;4.32;;;;;;;;;;4989175;28;20031;-92
2021/12/28 07:36:32;;;;;;;14.57;3.70;;;;;;;;;;4992667;28;20036;-93
2021/12/28 07:38:59;;;;;;;11.05;3.92;;;;;;;;;;4985138;28;20035;-90
2021/12/28 07:41:25;;;;;;;29.27;5.63;;;;;;;;;;4970086;28;20307;-92
2021/12/28 07:43:54;;;;;;;30.63;12.38;;;;;;;;;;4962921;28;20046;-92
2021/12/28 07:46:21;;;;;;;22.73;8.13;;;;;;;;;;4952791;29;20040;-92
2021/12/28 07:48:48;;;;;;;28.08;9.98;;;;;;;;;;4977610;28;20063;-93
2021/12/28 07:51:14;;;;;;;49.45;22.02;;;;;;;;;;5020273;28;20031;-93
2021/12/28 07:53:40;;;;;;;66.10;31.40;;;;;;;;;;4999667;28;20054;-93
2021/12/28 07:56:06;;;;;;;26.85;14.88;;;;;;;;;;4998801;28;20026;-93
2021/12/28 07:58:33;;;;;;;16.83;5.85;;;;;;;;;;5005677;28;20049;-91
2021/12/28 08:01:00;;;;;;;19.70;4.25;;;;;;;;;;5016795;28;20057;-89
2021/12/28 08:03:26;;;;;;;29.52;6.22;;;;;;;;;;4990984;28;20038;-83
2021/12/28 08:05:52;;;;;;;22.98;4.10;;;;;;;;;;5038509;28;20033;-90
2021/12/28 08:08:19;;;;;;;19.15;4.70;;;;;;;;;;5022614;28;20034;-86
2021/12/28 08:10:45;;;;;;;10.27;3.85;;;;;;;;;;5018513;28;20015;-87
2021/12/28 08:13:11;;;;;;;10.77;3.70;;;;;;;;;;5018586;28;20029;-87
2021/12/28 08:15:37;;;;;;;11.18;4.15;;;;;;;;;;5019069;28;20038;-88
2021/12/28 08:18:07;;;;;;;17.10;5.38;;;;;;;;;;5019302;28;20021;-89
2021/12/28 08:20:33;;;;;;;19.40;6.10;;;;;;;;;;5019237;28;20029;-89
2021/12/28 08:23:00;;;;;;;13.32;5.80;;;;;;;;;;5019213;28;20021;-89
2021/12/28 08:25:26;;;;;;;16.10;5.50;;;;;;;;;;5010440;28;20043;-89
2021/12/28 08:27:52;;;;;;;16.88;5.60;;;;;;;;;;4995895;28;20476;-86
2021/12/28 08:30:19;;;;;;;19.23;7.35;;;;;;;;;;4995606;28;20030;-88
2021/12/28 08:32:46;;;;;;;16.98;6.43;;;;;;;;;;4995832;28;20456;-87
2021/12/28 08:35:22;;;;;;;17.52;6.03;;;;;;;;;;4996859;28;20041;-89
2021/12/28 08:37:48;;;;;;;11.63;5.90;;;;;;;;;;4996279;28;20432;-90
2021/12/28 08:40:17;;;;;;;12.73;5.13;;;;;;;;;;4996627;28;20384;-91
2021/12/28 08:42:43;;;;;;;15.05;5.15;;;;;;;;;;4999517;28;20053;-90
2021/12/28 08:45:09;;;;;;;10.30;4.80;;;;;;;;;;5000349;28;20389;-90
2021/12/28 08:47:36;;;;;;;9.05;3.60;;;;;;;;;;4999769;28;20384;-92
2021/12/28 08:50:05;;;;;;;8.23;3.55;;;;;;;;;;4999792;28;20034;-90
2021/12/28 08:52:31;;;;;;;10.57;3.65;;;;;;;;;;5000134;28;20418;-89
2021/12/28 08:54:57;;;;;;;7.28;3.08;;;;;;;;;;5007735;28;20037;-91
2021/12/28 08:57:24;;;;;;;8.90;3.50;;;;;;;;;;5016805;28;20046;-90
2021/12/28 08:59:50;;;;;;;5.80;2.95;;;;;;;;;;5016453;28;20038;-86
2021/12/28 09:02:16;;;;;;;7.90;3.38;;;;;;;;;;5016111;28;20572;-91
2021/12/28 09:04:46;;;;;;;9.50;3.72;;;;;;;;;;5018233;28;20056;-88
2021/12/28 09:07:17;;;;;;;10.32;3.80;;;;;;;;;;4997924;28;20046;-87
2021/12/28 09:09:43;;;;;;;;;;;;;;;;;;4998563;28;20026;-93
2021/12/28 09:12:10;;;;;;;8.82;2.83;;;;;;;;;;5007672;28;19926;-92
2021/12/28 09:14:36;;;;;;;9.68;3.20;;;;;;;;;;4996239;28;20038;-89
2021/12/28 09:17:03;;;;;;;6.82;3.10;;;;;;;;;;5003967;28;20033;-90
2021/12/28 09:19:30;;;;;;;8.85;3.28;;;;;;;;;;5005927;28;20030;-90
2021/12/28 09:21:56;;;;;;;7.22;2.88;;;;;;;;;;5019279;28;20133;-90
2021/12/28 09:24:22;;;;;;;7.90;3.08;;;;;;;;;;5001825;28;20069;-90
2021/12/28 09:26:48;;;;;;;8.60;3.47;;;;;;;;;;5029000;28;20046;-89
2021/12/28 09:29:14;;;;;;;9.45;3.50;;;;;;;;;;5029121;28;20026;-90
2021/12/28 09:31:44;;;;;;;10.02;3.22;;;;;;;;;;5047703;28;20140;-90
2021/12/28 09:34:10;;;;;;;10.07;2.95;;;;;;;;;;5036995;28;20018;-89
2021/12/28 09:36:40;;;;;;;7.30;2.95;;;;;;;;;;5034652;28;20030;-89
2021/12/28 09:39:07;;;;;;;9.70;3.35;;;;;;;;;;5037797;28;20013;-89
2021/12/28 09:41:33;;;;;;;6.97;3.22;;;;;;;;;;5035320;28;20037;-88
2021/12/28 09:43:59;;;;;;;8.15;3.22;;;;;;;;;;5028832;28;20035;-86
2021/12/28 09:46:25;;;;;;;5.82;2.78;;;;;;;;;;5032382;28;20042;-90
2021/12/28 09:48:51;;;;;;;6.63;2.95;;;;;;;;;;5035623;28;20010;-89
2021/12/28 09:51:17;;;;;;;8.65;3.10;;;;;;;;;;5035041;28;20041;-89
2021/12/28 09:53:44;;;;;;;6.57;3.20;;;;;;;;;;4983747;28;20036;-88
2021/12/28 09:56:13;;;;;;;15.65;4.13;;;;;;;;;;5034418;28;20278;-90
2021/12/28 09:58:40;;;;;;;9.73;3.45;;;;;;;;;;5015951;28;20050;-88
2021/12/28 10:01:08;;;;;;;10.88;4.97;;;;;;;;;;5038608;28;20018;-91
2021/12/28 10:03:35;;;;;;;8.18;4.10;;;;;;;;;;5019468;28;20037;-91
2021/12/28 10:06:25;;;;;;;10.50;3.90;;;;;;;;;;5013030;28;20038;-89
2021/12/28 10:09:10;;;;;;;6.47;3.53;;;;;;;;;;5024241;28;20030;-86
2021/12/28 10:12:10;;;;;;;8.85;3.67;;;;;;;;;;5001407;28;20050;-87
2021/12/28 10:14:36;;;;;;;6.80;3.17;;;;;;;;;;5027842;28;20046;-88
2021/12/28 10:17:05;;;;;;;7.88;3.85;;;;;;;;;;5029352;28;20020;-88
2021/12/28 10:19:45;;;;;;;8.15;3.17;;;;;;;;;;5024396;28;20228;-89
2021/12/28 10:22:53;;;;;;;8.97;3.50;;;;;;;;;;5019116;28;20022;-91
2021/12/28 10:25:20;;;;;;;6.45;3.10;;;;;;;;;;5007871;28;20034;-88
2021/12/28 10:27:50;;;;;;;7.43;3.08;;;;;;;;;;5014707;28;20034;-87
2021/12/28 10:30:28;;;;;;;7.35;3.40;;;;;;;;;;5034927;28;20042;-86
2021/12/28 10:32:58;;;;;;;7.68;3.38;;;;;;;;;;5033256;28;20034;-87
2021/12/28 10:35:28;;;;;;;6.25;3.63;;;;;;;;;;5014069;28;20038;-92
2021/12/28 10:37:57;;;;;;;9.60;3.72;;;;;;;;;;5030204;28;20040;-92
2021/12/28 10:40:30;;;;;;;7.22;3.15;;;;;;;;;;5008213;28;20034;-92
2021/12/28 10:43:04;;;;;;;5.40;2.90;;;;;;;;;;5026333;28;20049;-90
2021/12/28 10:45:36;;;;;;;6.50;3.28;;;;;;;;;;5019623;28;20388;-91
2021/12/28 10:48:07;;;;;;;7.13;3.20;;;;;;;;;;5027781;28;20376;-92
2021/12/28 10:50:39;;;;;;;6.72;3.30;;;;;;;;;;5019986;28;20380;-90
2021/12/28 10:53:14;;;;;;;7.13;4.22;;;;;;;;;;5019863;28;20030;-91
2021/12/28 10:55:43;;;;;;;7.05;3.55;;;;;;;;;;5019339;28;20500;-91
2021/12/28 10:58:18;;;;;;;7.53;3.35;;;;;;;;;;5019333;28;20057;-91
2021/12/28 11:00:45;;;;;;;6.32;2.90;;;;;;;;;;5026188;28;20037;-91
2021/12/28 11:03:16;;;;;;;5.80;2.60;;;;;;;;;;5037930;28;20021;-90
2021/12/28 11:05:50;;;;;;;6.70;2.65;;;;;;;;;;5037999;28;20014;-92
2021/12/28 11:08:17;;;;;;;5.25;2.90;;;;;;;;;;5004870;28;20042;-91
2021/12/28 11:10:52;;;;;;;4.32;2.55;;;;;;;;;;5017668;28;20029;-91
2021/12/28 11:13:23;;;;;;;4.32;2.53;;;;;;;;;;5017565;28;20034;-92
2021/12/28 11:15:49;;;;;;;5.63;2.92;;;;;;;;;;5016122;28;20476;-91
2021/12/28 11:18:19;;;;;;;7.25;3.33;;;;;;;;;;5015009;28;20042;-91
2021/12/28 11:20:45;;;;;;;6.88;3.22;;;;;;;;;;5014311;28;20061;-92
2021/12/28 11:23:14;;;;;;;4.95;2.88;;;;;;;;;;5013976;28;20025;-91
2021/12/28 11:25:40;;;;;;;5.13;3.03;;;;;;;;;;5013464;28;20032;-91
2021/12/28 11:28:20;;;;;;;5.15;2.33;;;;;;;;;;5013863;28;20041;-91
2021/12/28 11:30:58;;;;;;;7.18;2.58;;;;;;;;;;5013423;28;20022;-90
2021/12/28 11:33:24;;;;;;;3.42;2.22;;;;;;;;;;5013406;28;20026;-92
2021/12/28 11:35:50;;;;;;;7.63;2.58;;;;;;;;;;5013465;28;20034;-90
2021/12/28 11:38:16;;;;;;;6.03;2.55;;;;;;;;;;5012960;28;20037;-92
2021/12/28 11:40:42;;;;;;;6.28;2.67;;;;;;;;;;5013478;28;20033;-90
2021/12/28 11:43:08;;;;;;;4.32;2.33;;;;;;;;;;5013162;28;20026;-92
2021/12/28 11:45:34;;;;;;;4.00;1.90;;;;;;;;;;4996403;28;20396;-91
2021/12/28 11:48:00;;;;;;;4.70;2.05;;;;;;;;;;5014140;28;20051;-89
2021/12/28 11:50:26;;;;;;;6.45;2.15;;;;;;;;;;4994936;28;20038;-91
2021/12/28 11:52:52;;;;;;;3.88;2.30;;;;;;;;;;5012609;28;20465;-89
2021/12/28 11:55:19;;;;;;;4.32;2.42;;;;;;;;;;5011978;28;20057;-90
2021/12/28 11:57:52;;;;;;;5.57;2.40;;;;;;;;;;5010822;28;20488;-90
2021/12/28 12:00:21;;;;;;;6.13;2.80;;;;;;;;;;5012579;28;20468;-90
2021/12/28 12:02:53;;;;;;;6.88;2.60;;;;;;;;;;5012307;28;20038;-90
2021/12/28 12:05:23;;;;;;;7.45;2.40;;;;;;;;;;4997417;28;20399;-91
2021/12/28 12:08:07;;;;;;;6.72;2.60;;;;;;;;;;5013445;28;20036;-90
2021/12/28 12:10:35;;;;;;;4.93;2.67;;;;;;;;;;5013307;28;20029;-91
2021/12/28 12:13:30;;;;;;;6.95;3.03;;;;;;;;;;4955837;28;20419;-90
2021/12/28 12:16:12;;;;;;;6.15;2.83;;;;;;;;;;4990952;28;20334;-92
2021/12/28 12:18:49;;;;;;;6.32;3.20;;;;;;;;;;5018512;28;20304;-89
2021/12/28 12:21:17;;;;;;;5.38;3.30;;;;;;;;;;5030155;28;20044;-90
2021/12/28 12:23:47;;;;;;;5.53;3.00;;;;;;;;;;5017626;28;20048;-91
2021/12/28 12:26:18;;;;;;;4.85;2.95;;;;;;;;;;5034602;28;20029;-90
2021/12/28 12:28:50;;;;;;;3.67;2.40;;;;;;;;;;5032470;28;20036;-92
2021/12/28 12:31:29;;;;;;;4.60;2.00;;;;;;;;;;5020314;28;20064;-87
2021/12/28 12:33:56;;;;;;;2.35;1.70;;;;;;;;;;5017059;28;20021;-88
2021/12/28 12:36:32;;;;;;;1.83;1.50;;;;;;;;;;5016107;28;20037;-86
2021/12/28 12:38:58;;;;;;;1.70;1.45;;;;;;;;;;4997360;28;20038;-86
2021/12/28 12:41:50;;;;;;;2.55;1.65;;;;;;;;;;5017027;28;20491;-87
2021/12/28 12:44:24;;;;;;;2.47;1.58;;;;;;;;;;5030876;28;20033;-86
2021/12/28 12:46:53;;;;;;;3.47;2.20;;;;;;;;;;5031940;28;20371;-87
2021/12/28 12:49:29;;;;;;;25.70;14.82;;;;;;;;;;5032177;28;20045;-88
2021/12/28 12:52:11;;;;;;;3.72;1.80;;;;;;;;;;5023881;28;20392;-88
2021/12/28 12:54:44;;;;;;;2.92;1.70;;;;;;;;;;5012394;28;20045;-86
2021/12/28 12:57:12;;;;;;;4.10;1.90;;;;;;;;;;5010423;28;20046;-91
2021/12/28 12:59:48;;;;;;;3.90;2.10;;;;;;;;;;5018129;28;20034;-90
2021/12/28 13:02:17;;;;;;;5.85;2.20;;;;;;;;;;5002506;28;20042;-91
2021/12/28 13:04:54;;;;;;;5.32;2.40;;;;;;;;;;5032752;28;20021;-91
2021/12/28 13:07:30;;;;;;;3.22;1.85;;;;;;;;;;5026534;28;20038;-92
2021/12/28 13:10:10;;;;;;;3.95;2.10;;;;;;;;;;5051715;28;20041;-93
2021/12/28 13:12:37;;;;;;;5.47;2.58;;;;;;;;;;5016172;28;20056;-92
2021/12/28 13:15:07;;;;;;;6.20;1.83;;;;;;;;;;5037193;28;20014;-92
2021/12/28 13:17:42;;;;;;;4.10;2.17;;;;;;;;;;5032863;28;20013;-92
2021/12/28 13:20:10;;;;;;;4.30;2.10;;;;;;;;;;5003125;28;20157;-92
2021/12/28 13:22:48;;;;;;;5.07;3.08;;;;;;;;;;5000720;28;20031;-93
2021/12/28 13:25:24;;;;;;;5.95;3.33;;;;;;;;;;4998353;28;20018;-91
2021/12/28 13:27:50;;;;;;;6.13;3.20;;;;;;;;;;4994992;28;20715;-91
2021/12/28 13:30:22;;;;;;;5.80;2.80;;;;;;;;;;4973420;28;20035;-93
2021/12/28 13:32:50;;;;;;;3.95;2.15;;;;;;;;;;5008530;28;20058;-92
2021/12/28 13:35:29;;;;;;;3.40;2.03;;;;;;;;;;5011940;28;20049;-91
2021/12/28 13:38:07;;;;;;;4.32;2.15;;;;;;;;;;4997378;28;20057;-92
2021/12/28 13:40:53;;;;;;;4.38;1.58;;;;;;;;;;4997785;28;20022;-91
2021/12/28 13:43:25;;;;;;;5.55;1.50;;;;;;;;;;4971628;28;20061;-92
2021/12/28 13:45:51;;;;;;;3.45;1.80;;;;;;;;;;4996833;28;20034;-92
2021/12/28 13:48:24;;;;;;;4.07;1.70;;;;;;;;;;4978227;28;20038;-91
2021/12/28 13:50:58;;;;;;;4.85;1.60;;;;;;;;;;5010683;28;20046;-91
2021/12/28 13:53:30;;;;;;;3.10;1.58;;;;;;;;;;5000210;28;20037;-92
2021/12/28 13:56:03;;;;;;;4.38;1.40;;;;;;;;;;4985547;28;20038;-90
2021/12/28 13:58:44;;;;;;;2.53;1.63;;;;;;;;;;5006049;28;20432;-91
2021/12/28 14:01:16;;;;;;;4.47;1.67;;;;;;;;;;5037773;28;20038;-91
2021/12/28 14:03:57;;;;;;;5.78;1.88;;;;;;;;;;5024929;28;20029;-91
2021/12/28 14:06:23;;;;;;;;;;;;;;;;;;5039845;28;20017;-92
2021/12/28 14:08:49;;;;;;;3.45;1.63;;;;;;;;;;5022164;28;19924;-92
2021/12/28 14:11:49;;;;;;;5.28;1.40;;;;;;;;;;5039946;28;20028;-91
2021/12/28 14:17:00;;;;;;;3.90;1.50;;;;;;;;;;5036988;28;20038;-87
2021/12/28 14:19:29;;;;;;;9.48;1.70;;;;;;;;;;5038547;28;20030;-92
2021/12/28 14:21:56;;;;;;;10.57;2.15;;;;;;;;;;5038448;28;20014;-93
2021/12/28 14:24:29;;;;;;;5.63;1.60;;;;;;;;;;5033025;28;20043;-93
2021/12/28 14:26:57;;;;;;;9.80;1.90;;;;;;;;;;5021333;28;20064;-92
2021/12/28 14:29:28;;;;;;;6.57;1.80;;;;;;;;;;5033141;28;20042;-91
2021/12/28 14:31:57;;;;;;;9.75;2.17;;;;;;;;;;5038519;28;20014;-90
2021/12/28 14:34:30;;;;;;;10.48;1.80;;;;;;;;;;5038904;28;20041;-90
2021/12/28 14:37:11;;;;;;;6.50;1.67;;;;;;;;;;5038621;28;20025;-91
2021/12/28 14:39:43;;;;;;;6.50;1.85;;;;;;;;;;5049027;23;20034;-90
2021/12/28 14:42:35;;;;;;;6.68;1.98;;;;;;;;;;5022607;28;20033;-89
2021/12/28 14:45:07;;;;;;;4.07;1.55;;;;;;;;;;5054065;28;20104;-89
2021/12/28 14:47:36;;;;;;;10.32;2.75;;;;;;;;;;5033545;28;20040;-91
2021/12/28 14:50:28;;;;;;;6.95;1.75;;;;;;;;;;5055224;28;20020;-89
2021/12/28 14:52:57;;;;;;;8.55;1.90;;;;;;;;;;5030526;28;20041;-92
2021/12/28 14:55:27;;;;;;;9.13;2.00;;;;;;;;;;5041444;28;20032;-92
2021/12/28 14:57:59;;;;;;;8.55;2.00;;;;;;;;;;5057452;28;20045;-92
2021/12/28 15:00:45;;;;;;;8.07;2.05;;;;;;;;;;5040806;28;20048;-92
2021/12/28 15:03:17;;;;;;;8.82;2.50;;;;;;;;;;5179459;23;20060;-88
2021/12/28 15:05:56;;;;;;;11.10;2.50;;;;;;;;;;5040492;28;20044;-88
2021/12/28 15:08:24;;;;;;;15.18;2.70;;;;;;;;;;5041575;28;20047;-90
2021/12/28 15:10:53;;;;;;;18.17;4.53;;;;;;;;;;5040853;28;20395;-89
2021/12/28 15:13:26;;;;;;;8.57;2.13;;;;;;;;;;5044924;28;20025;-92
2021/12/28 15:15:53;;;;;;;11.00;2.30;;;;;;;;;;5068188;23;20052;-92
2021/12/28 15:18:19;;;;;;;12.07;2.47;;;;;;;;;;5057604;28;20014;-92
2021/12/28 15:20:46;;;;;;;15.73;2.85;;;;;;;;;;5054675;28;20022;-90
2021/12/28 15:23:12;;;;;;;13.38;2.40;;;;;;;;;;5049235;28;20033;-88
2021/12/28 15:25:39;;;;;;;13.20;2.85;;;;;;;;;;5043348;28;20033;-89
2021/12/28 15:28:05;;;;;;;11.57;2.70;;;;;;;;;;5001002;28;20033;-89
2021/12/28 15:30:34;;;;;;;13.65;3.58;;;;;;;;;;5029215;28;20029;-89
2021/12/28 15:33:01;;;;;;;16.48;2.95;;;;;;;;;;5039478;28;20467;-89
2021/12/28 15:35:31;;;;;;;9.80;2.60;;;;;;;;;;5039265;28;20399;-90
2021/12/28 15:38:06;;;;;;;15.98;2.70;;;;;;;;;;5023958;28;20048;-91